Time;durP1;ratioP1;P1;durP2;ratioP2;P2;SDS_P1;SDS_P2;PMS_P1;PMS_P2;Temp;Humidity;BMP_temperature;BMP_pressure;BME280_temperature;BME280_humidity;BME280_pressure;Samples;Min_cycle;Max_cycle;Signal;HPM_P1;HPM_P2
2021/11/23 00:00:12;;;;;;;;;27.75;21.25;;;;;2.68;74.74;101934.78;5015594;28;45300;-74
2021/11/23 00:02:38;;;;;;;;;32.25;22.50;;;;;2.67;74.28;101937.38;5015705;28;45314;-76
2021/11/23 00:05:06;;;;;;;;;26.75;23.25;;;;;2.64;75.03;101938.19;5015804;28;45393;-74
2021/11/23 00:07:31;;;;;;;;;30.75;25.50;;;;;2.64;73.84;101933.00;5015622;27;45428;-75
2021/11/23 00:09:57;;;;;;;;;25.75;20.25;;;;;2.39;74.71;101904.06;5016001;28;45180;-74
2021/11/23 00:12:24;;;;;;;;;40.00;27.25;;;;;2.55;74.39;101920.72;5017339;28;46692;-73
2021/11/23 00:14:50;;;;;;;;;21.50;20.50;;;;;2.62;74.24;101926.91;5015977;28;46112;-75
2021/11/23 00:17:16;;;;;;;;;25.00;19.75;;;;;2.61;74.31;101938.16;5015998;28;45362;-73
2021/11/23 00:19:41;;;;;;;;;26.00;21.25;;;;;2.58;75.05;101931.16;5018381;28;45430;-73
2021/11/23 00:22:07;;;;;;;;;27.50;25.00;;;;;2.60;75.11;101931.22;5020102;28;45319;-74
2021/11/23 00:24:32;;;;;;;;;24.75;22.75;;;;;2.54;74.26;101923.31;5019000;28;45375;-74
2021/11/23 00:26:58;;;;;;;;;24.75;20.50;;;;;2.55;75.16;101936.31;5019219;28;45848;-72
2021/11/23 00:29:23;;;;;;;;;26.75;23.25;;;;;2.52;74.92;101925.88;5020191;28;45367;-73
2021/11/23 00:31:48;;;;;;;;;20.25;18.50;;;;;2.51;74.91;101939.72;5018683;28;45436;-73
2021/11/23 00:34:14;;;;;;;;;31.50;22.25;;;;;2.52;74.74;101938.00;5017838;28;45239;-74
2021/11/23 00:36:39;;;;;;;;;26.50;24.00;;;;;2.43;75.10;101917.97;5017353;28;45298;-74
2021/11/23 00:39:05;;;;;;;;;27.00;22.00;;;;;2.46;74.71;101918.88;5016512;28;45313;-76
2021/11/23 00:41:30;;;;;;;;;31.75;21.25;;;;;2.44;74.73;101923.19;5015326;28;46154;-74
2021/11/23 00:43:55;;;;;;;;;23.75;19.75;;;;;2.43;75.19;101926.63;5016910;28;45313;-74
2021/11/23 00:46:21;;;;;;;;;26.75;22.00;;;;;2.41;75.79;101925.75;5014530;28;45318;-74
2021/11/23 00:48:46;;;;;;;;;30.25;25.50;;;;;2.43;75.05;101926.63;5015582;28;45619;-74
2021/11/23 00:51:12;;;;;;;;;22.50;20.25;;;;;2.42;75.04;101931.78;5016875;28;45911;-74
2021/11/23 00:53:37;;;;;;;;;26.50;21.00;;;;;2.41;75.64;101932.63;5015000;28;45353;-74
2021/11/23 00:56:04;;;;;;;;;34.00;25.25;;;;;2.38;74.56;101923.09;5015145;28;45331;-73
2021/11/23 00:58:31;;;;;;;;;23.75;20.25;;;;;2.40;75.12;101931.78;5016366;28;45504;-74
2021/11/23 01:00:56;;;;;;;;;33.25;28.50;;;;;2.12;75.54;101878.53;5016482;28;46409;-74
2021/11/23 01:03:22;;;;;;;;;24.75;23.25;;;;;2.38;74.92;101922.22;5016376;27;45457;-74
2021/11/23 01:05:47;;;;;;;;;26.25;21.00;;;;;2.34;75.19;101929.09;5018256;28;45514;-74
2021/11/23 01:08:22;;;;;;;;;30.75;25.00;;;;;2.36;74.54;101924.78;5016288;28;45309;-73
2021/11/23 01:10:47;;;;;;;;;28.50;23.00;;;;;2.36;75.02;101922.19;5015058;28;47278;-74
2021/11/23 01:13:13;;;;;;;;;26.75;25.75;;;;;2.34;75.55;101923.91;5018058;27;45389;-74
2021/11/23 01:15:38;;;;;;;;;24.75;20.25;;;;;2.34;75.17;101929.09;5016384;28;45954;-74
2021/11/23 01:18:04;;;;;;;;;33.50;26.25;;;;;2.33;75.62;101925.59;5016840;28;45339;-74
2021/11/23 01:20:32;;;;;;;;;22.00;20.00;;;;;2.25;75.14;101919.41;5016823;28;45368;-77
2021/11/23 01:22:58;;;;;;;;;23.25;19.75;;;;;2.30;75.91;101927.28;5016915;28;45849;-73
2021/11/23 01:25:25;;;;;;;;;27.00;23.75;;;;;2.27;74.96;101925.50;5017640;28;45360;-73
2021/11/23 01:27:50;;;;;;;;;25.50;25.25;;;;;2.22;74.86;101916.78;5016750;28;45322;-73
2021/11/23 01:30:16;;;;;;;;;26.50;25.25;;;;;2.22;76.10;101923.72;5015809;28;45479;-74
2021/11/23 01:32:42;;;;;;;;;31.00;23.50;;;;;2.24;76.03;101929.78;5016095;28;45357;-74
2021/11/23 01:35:12;;;;;;;;;29.00;24.25;;;;;2.11;75.11;101908.81;5017580;28;45302;-73
2021/11/23 01:37:37;;;;;;;;;24.75;23.00;;;;;1.97;75.18;101889.53;5015370;28;45390;-73
2021/11/23 01:40:04;;;;;;;;;33.00;26.00;;;;;2.17;75.32;101928.81;5014309;28;47036;-72
2021/11/23 01:42:30;;;;;;;;;31.75;26.75;;;;;1.98;75.74;101899.06;5014135;28;45749;-71
2021/11/23 01:44:55;;;;;;;;;28.50;25.75;;;;;2.11;75.90;101924.38;5014720;28;45412;-71
2021/11/23 01:47:21;;;;;;;;;33.50;25.75;;;;;2.10;76.06;101914.84;5017184;28;45414;-72
2021/11/23 01:49:46;;;;;;;;;28.50;23.75;;;;;1.97;76.06;101903.41;5015051;28;47176;-72
2021/11/23 01:52:12;;;;;;;;;30.75;27.00;;;;;2.11;76.15;101926.13;5014463;28;45474;-71
2021/11/23 01:54:37;;;;;;;;;28.50;24.75;;;;;2.10;75.72;101930.41;5015345;28;45402;-71
2021/11/23 01:57:03;;;;;;;;;37.25;29.50;;;;;2.00;76.18;101918.13;5014878;28;45302;-73
2021/11/23 01:59:29;;;;;;;;;32.00;26.50;;;;;2.08;76.34;101937.31;5013922;28;45920;-71
2021/11/23 02:01:54;;;;;;;;;27.25;23.75;;;;;2.07;76.01;101932.97;5013797;28;45871;-72
2021/11/23 02:04:20;;;;;;;;;28.00;26.75;;;;;2.05;76.41;101926.88;5014185;28;45303;-74
2021/11/23 02:06:45;;;;;;;;;30.75;27.75;;;;;1.35;76.94;101811.53;5018307;28;45239;-73
2021/11/23 02:09:11;;;;;;;;;32.50;26.75;;;;;2.04;76.33;101923.41;5015545;28;46221;-73
2021/11/23 02:11:37;;;;;;;;;31.00;27.75;;;;;2.02;75.87;101930.31;5013809;28;45994;-72
2021/11/23 02:14:03;;;;;;;;;29.50;24.25;;;;;1.99;76.31;101931.97;5013740;28;45389;-72
2021/11/23 02:16:32;;;;;;;;;30.75;26.75;;;;;1.80;76.09;101903.09;5013677;28;45604;-73
2021/11/23 02:18:58;;;;;;;;;30.75;26.00;;;;;1.99;76.14;101942.34;5014524;28;45423;-72
2021/11/23 02:21:24;;;;;;;;;21.00;19.50;;;;;1.98;76.60;101935.41;5013909;28;45431;-73
2021/11/23 02:23:50;;;;;;;;;30.75;25.25;;;;;1.97;76.27;101934.53;5014338;28;45362;-71
2021/11/23 02:26:15;;;;;;;;;33.25;29.50;;;;;1.98;75.78;101941.47;5013803;28;45328;-71
2021/11/23 02:28:41;;;;;;;;;27.25;23.75;;;;;1.95;76.24;101940.53;5013438;28;45241;-72
2021/11/23 02:31:08;;;;;;;;;28.75;25.50;;;;;1.94;76.68;101938.78;5014181;28;45305;-74
2021/11/23 02:33:34;;;;;;;;;27.50;20.75;;;;;1.93;75.85;101926.66;5016897;28;45252;-73
2021/11/23 02:36:02;;;;;;;;;31.50;25.50;;;;;1.93;76.35;101931.84;5015371;28;45321;-74
2021/11/23 02:38:28;;;;;;;;;31.25;24.00;;;;;1.91;76.39;101931.84;5013825;28;46797;-74
2021/11/23 02:40:55;;;;;;;;;29.25;25.50;;;;;1.89;76.08;101924.00;5013412;28;45401;-73
2021/11/23 02:43:22;;;;;;;;;32.50;28.25;;;;;1.88;76.51;101922.25;5012501;28;45299;-72
2021/11/23 02:45:48;;;;;;;;;28.75;23.00;;;;;1.89;76.11;101926.59;5014200;28;45532;-72
2021/11/23 02:48:14;;;;;;;;;29.25;24.50;;;;;1.60;76.39;101875.09;5013276;28;46403;-72
2021/11/23 02:50:44;;;;;;;;;29.00;26.25;;;;;1.90;75.76;101924.91;5013257;28;45571;-72
2021/11/23 02:53:09;;;;;;;;;34.50;27.50;;;;;1.82;75.50;101906.59;5014406;27;45460;-73
2021/11/23 02:55:36;;;;;;;;;35.25;26.50;;;;;1.84;76.09;101910.09;5016124;28;45510;-73
2021/11/23 02:58:05;;;;;;;;;32.75;28.75;;;;;1.87;76.41;101920.53;5017651;28;46232;-72
2021/11/23 03:00:30;;;;;;;;;24.75;23.50;;;;;1.88;76.09;101917.06;5019238;28;45406;-74
2021/11/23 03:02:56;;;;;;;;;31.00;22.50;;;;;1.90;75.49;101923.16;5015739;28;45350;-72
2021/11/23 03:05:24;;;;;;;;;25.00;21.00;;;;;1.82;75.91;101911.78;5016899;28;45535;-73
2021/11/23 03:07:51;;;;;;;;;31.25;26.25;;;;;1.85;75.50;101913.56;5013636;28;45451;-74
2021/11/23 03:10:19;;;;;;;;;32.75;27.00;;;;;1.86;74.95;101910.97;5013071;28;45311;-74
2021/11/23 03:12:46;;;;;;;;;34.75;27.50;;;;;1.79;75.30;101893.56;5012860;28;45308;-73
2021/11/23 03:15:12;;;;;;;;;31.00;24.75;;;;;1.80;75.79;101900.50;5013373;28;45317;-73
2021/11/23 03:17:38;;;;;;;;;34.00;26.25;;;;;1.86;75.59;101908.41;5013066;28;45466;-74
2021/11/23 03:20:06;;;;;;;;;24.75;20.75;;;;;1.86;75.08;101898.00;5017081;28;45376;-72
2021/11/23 03:22:32;;;;;;;;;21.00;18.50;;;;;1.85;75.48;101892.81;5015248;28;45394;-72
2021/11/23 03:24:57;;;;;;;;;30.25;24.25;;;;;1.85;75.47;101895.41;5015854;28;45251;-72
2021/11/23 03:27:23;;;;;;;;;34.50;27.25;;;;;1.73;75.26;101876.19;5018461;28;45421;-74
2021/11/23 03:29:48;;;;;;;;;25.50;24.50;;;;;1.85;75.65;101901.44;5013911;28;45326;-73
2021/11/23 03:32:14;;;;;;;;;30.75;25.75;;;;;1.85;75.49;101895.41;5014344;28;45223;-73
2021/11/23 03:34:40;;;;;;;;;30.50;27.00;;;;;1.79;75.16;101885.78;5017227;28;45303;-73
2021/11/23 03:37:08;;;;;;;;;31.50;26.00;;;;;1.85;74.94;101891.06;5017087;28;47050;-72
2021/11/23 03:39:35;;;;;;;;;27.50;22.75;;;;;1.78;75.30;101884.03;5018947;28;45536;-73
2021/11/23 03:42:00;;;;;;;;;32.75;25.25;;;;;1.79;75.60;101887.53;5016939;28;45285;-71
2021/11/23 03:44:26;;;;;;;;;25.00;22.75;;;;;1.83;75.09;101897.97;5018996;28;45365;-71
2021/11/23 03:46:52;;;;;;;;;25.25;23.75;;;;;1.82;74.92;101885.84;5017335;28;45316;-74
2021/11/23 03:49:18;;;;;;;;;29.75;25.00;;;;;1.78;75.16;101878.00;5016532;28;45421;-72
2021/11/23 03:51:43;;;;;;;;;29.00;22.50;;;;;1.78;74.84;101873.66;5019269;28;45176;-72
2021/11/23 03:54:08;;;;;;;;;31.50;25.75;;;;;1.79;75.23;101879.75;5018548;28;45383;-72
2021/11/23 03:56:34;;;;;;;;;30.25;24.75;;;;;1.70;75.22;101865.75;5016320;28;45427;-73
2021/11/23 03:59:00;;;;;;;;;27.75;21.25;;;;;1.73;75.00;101870.13;5101983;27;45361;-74
2021/11/23 04:01:26;;;;;;;;;28.25;24.00;;;;;1.75;75.40;101873.59;5015012;28;45438;-76
2021/11/23 04:03:51;;;;;;;;;34.25;25.00;;;;;1.69;75.26;101869.19;5016802;28;45412;-74
2021/11/23 04:06:17;;;;;;;;;30.50;26.50;;;;;1.68;75.37;101869.16;5017069;28;46428;-73
2021/11/23 04:08:42;;;;;;;;;32.50;23.75;;;;;1.68;75.25;101867.47;5016811;28;45346;-73
2021/11/23 04:11:07;;;;;;;;;31.00;26.25;;;;;1.68;75.33;101872.66;5016719;28;45342;-72
2021/11/23 04:13:33;;;;;;;;;32.50;25.75;;;;;1.71;74.71;101877.88;5016870;28;45546;-73
2021/11/23 04:15:59;;;;;;;;;25.75;23.00;;;;;1.67;75.08;101876.09;5016469;28;45313;-72
2021/11/23 04:18:24;;;;;;;;;26.75;23.50;;;;;1.70;74.59;101885.63;5016636;27;45263;-73
2021/11/23 04:20:49;;;;;;;;;25.75;22.75;;;;;1.64;74.69;101873.44;5015550;28;45325;-72
2021/11/23 04:23:15;;;;;;;;;25.75;23.25;;;;;1.69;74.18;101889.06;5015740;28;45296;-73
2021/11/23 04:25:40;;;;;;;;;25.50;23.75;;;;;1.68;74.83;101898.59;5017297;27;46598;-73
2021/11/23 04:28:06;;;;;;;;;27.00;25.00;;;;;1.68;74.44;101901.19;5015017;28;45206;-71
2021/11/23 04:30:31;;;;;;;;;32.00;26.50;;;;;1.57;74.03;101879.34;5016491;28;45243;-72
2021/11/23 04:32:56;;;;;;;;;31.00;27.25;;;;;1.66;74.79;101892.50;5015331;28;45673;-72
2021/11/23 04:35:22;;;;;;;;;23.75;22.25;;;;;1.65;74.49;101884.66;5013667;28;45903;-72
2021/11/23 04:37:47;;;;;;;;;28.00;19.75;;;;;1.65;74.57;101889.84;5014840;28;45275;-72
2021/11/23 04:40:16;;;;;;;;;26.75;20.50;;;;;1.64;74.04;101894.19;5013532;28;45294;-72
2021/11/23 04:42:42;;;;;;;;;23.25;23.25;;;;;1.63;73.99;101894.16;5015434;28;45334;-72
2021/11/23 04:45:11;;;;;;;;;28.75;22.00;;;;;1.62;74.34;101887.22;5014472;28;45387;-72
2021/11/23 04:47:38;;;;;;;;;29.50;26.25;;;;;1.58;74.53;101892.34;5016380;28;45214;-72
2021/11/23 04:50:06;;;;;;;;;26.75;21.75;;;;;1.57;74.24;101890.59;5018550;28;45255;-72
2021/11/23 04:52:32;;;;;;;;;31.75;28.50;;;;;1.58;74.83;101897.53;5014191;28;45331;-72
2021/11/23 04:54:58;;;;;;;;;27.75;20.00;;;;;1.54;74.49;101884.47;5016913;28;45817;-72
2021/11/23 04:57:24;;;;;;;;;31.50;25.25;;;;;1.58;74.18;101899.22;5016101;28;45359;-71
2021/11/23 04:59:50;;;;;;;;;31.50;27.00;;;;;1.58;74.70;101904.41;5015758;28;45320;-73
2021/11/23 05:02:16;;;;;;;;;27.25;23.25;;;;;1.58;74.32;101901.81;5018308;28;45210;-72
2021/11/23 05:04:42;;;;;;;;;28.75;23.25;;;;;1.57;74.86;101895.78;5015396;28;45569;-72
2021/11/23 05:07:08;;;;;;;;;30.00;24.25;;;;;1.56;74.42;101896.63;5014905;28;45220;-73
2021/11/23 05:09:33;;;;;;;;;31.75;24.75;;;;;1.46;74.15;101889.53;5015201;28;45388;-74
2021/11/23 05:11:59;;;;;;;;;27.75;23.25;;;;;1.43;74.50;101887.72;5014243;28;45199;-71
2021/11/23 05:14:24;;;;;;;;;24.75;22.25;;;;;1.52;74.84;101893.94;5015408;28;47483;-75
2021/11/23 05:16:50;;;;;;;;;29.50;25.75;;;;;1.40;74.52;101881.63;5014424;28;45483;-72
2021/11/23 05:19:16;;;;;;;;;31.50;22.00;;;;;1.44;74.63;101884.28;5015500;28;45335;-71
2021/11/23 05:21:41;;;;;;;;;30.25;25.25;;;;;1.48;74.88;101898.22;5014820;28;45501;-73
2021/11/23 05:24:09;;;;;;;;;25.25;23.00;;;;;1.50;74.56;101904.28;5014220;28;46220;-72
2021/11/23 05:26:35;;;;;;;;;27.75;24.50;;;;;1.48;74.14;101902.50;5014130;28;45404;-71
2021/11/23 05:29:01;;;;;;;;;32.75;27.50;;;;;1.49;74.66;101899.06;5014620;28;45227;-72
2021/11/23 05:31:26;;;;;;;;;31.50;24.50;;;;;1.45;75.01;101903.34;5014522;28;45206;-73
2021/11/23 05:33:51;;;;;;;;;28.75;24.50;;;;;1.46;75.02;101910.28;5014327;28;45246;-72
2021/11/23 05:36:17;;;;;;;;;26.75;20.75;;;;;1.45;74.16;101913.72;5014574;28;45247;-72
2021/11/23 05:38:42;;;;;;;;;30.75;25.00;;;;;1.46;74.55;101924.09;5014375;28;45236;-73
2021/11/23 05:41:07;;;;;;;;;28.00;24.50;;;;;1.44;74.80;101925.78;5018012;28;45203;-73
2021/11/23 05:43:33;;;;;;;;;25.00;22.25;;;;;1.42;74.79;101922.28;5014006;28;46281;-74
2021/11/23 05:45:59;;;;;;;;;25.00;21.50;;;;;1.44;74.76;101927.53;5013986;28;45364;-72
2021/11/23 05:48:24;;;;;;;;;23.25;18.00;;;;;1.41;74.42;101923.13;5013954;28;45409;-73
2021/11/23 05:50:49;;;;;;;;;22.75;19.75;;;;;1.42;74.31;101929.22;5014256;28;45500;-74
2021/11/23 05:53:15;;;;;;;;;28.25;22.25;;;;;1.44;74.32;101930.13;5013486;28;46012;-74
2021/11/23 05:55:41;;;;;;;;;31.25;24.50;;;;;1.43;74.12;101936.13;5012611;28;45433;-73
2021/11/23 05:58:07;;;;;;;;;28.75;23.50;;;;;1.43;74.06;101918.00;5013584;28;45269;-72
2021/11/23 06:00:33;;;;;;;;;28.00;22.50;;;;;1.38;74.79;101917.88;5017976;28;45375;-74
2021/11/23 06:02:59;;;;;;;;;22.50;19.75;;;;;1.43;74.07;101937.00;5016382;28;45333;-73
2021/11/23 06:05:25;;;;;;;;;27.75;24.50;;;;;1.42;73.93;101931.81;5015587;28;45911;-74
2021/11/23 06:07:50;;;;;;;;;33.25;25.50;;;;;1.45;74.19;101931.84;5013893;28;45280;-74
2021/11/23 06:10:16;;;;;;;;;34.00;24.50;;;;;1.46;74.52;101936.19;5014355;28;45503;-73
2021/11/23 06:12:42;;;;;;;;;21.75;18.50;;;;;1.48;73.74;101936.22;5013726;28;46579;-74
2021/11/23 06:15:10;;;;;;;;;28.75;23.00;;;;;1.47;73.96;101932.75;5012258;28;45432;-72
2021/11/23 06:17:36;;;;;;;;;24.25;21.50;;;;;1.48;74.18;101941.41;5013955;28;45426;-72
2021/11/23 06:20:03;;;;;;;;;32.75;26.00;;;;;1.36;74.02;101916.13;5014451;28;45390;-73
2021/11/23 06:22:29;;;;;;;;;30.25;25.25;;;;;1.49;74.54;101941.44;5012698;28;47297;-72
2021/11/23 06:24:54;;;;;;;;;27.50;25.25;;;;;1.48;73.71;101937.09;5013710;28;45358;-73
2021/11/23 06:27:20;;;;;;;;;29.25;20.50;;;;;1.51;73.90;101939.75;5018145;28;45325;-73
2021/11/23 06:29:45;;;;;;;;;32.50;25.50;;;;;1.50;74.37;101931.94;5031303;28;45647;-73
2021/11/23 06:32:10;;;;;;;;;31.25;22.25;;;;;1.51;73.93;101937.16;5016094;28;45418;-75
2021/11/23 06:34:36;;;;;;;;;22.25;17.25;;;;;1.53;73.32;101935.47;5013655;28;45311;-73
2021/11/23 06:37:01;;;;;;;;;29.00;25.75;;;;;1.49;73.48;101931.06;5015980;28;45350;-74
2021/11/23 06:39:27;;;;;;;;;23.00;21.75;;;;;1.52;73.50;101940.63;5014787;28;45161;-78
2021/11/23 06:41:52;;;;;;;;;36.50;27.00;;;;;1.52;73.17;101938.91;5013987;28;47157;-75
2021/11/23 06:44:18;;;;;;;;;27.50;21.75;;;;;1.52;73.25;101946.69;5018011;28;45191;-74
2021/11/23 06:46:44;;;;;;;;;20.75;15.75;;;;;1.52;72.67;101944.09;5015149;28;45302;-72
2021/11/23 06:49:09;;;;;;;;;28.50;23.25;;;;;1.53;72.46;101951.03;5014712;28;45603;-72
2021/11/23 06:51:34;;;;;;;;;26.00;19.50;;;;;1.53;73.31;101947.56;5016681;28;46055;-74
2021/11/23 06:54:00;;;;;;;;;28.50;20.50;;;;;1.47;72.37;101943.13;5016628;28;45432;-72
2021/11/23 06:56:26;;;;;;;;;24.50;22.50;;;;;1.59;72.87;101960.63;5012876;28;45363;-73
2021/11/23 06:58:52;;;;;;;;;26.50;23.75;;;;;1.65;72.43;101960.78;5013637;28;45484;-73
2021/11/23 07:01:18;;;;;;;;;23.50;20.75;;;;;1.66;72.34;101966.81;5012019;28;47282;-72
2021/11/23 07:03:43;;;;;;;;;27.25;20.50;;;;;1.62;72.43;101963.31;5013517;28;45851;-76
2021/11/23 07:06:09;;;;;;;;;29.00;23.00;;;;;1.67;72.31;101971.16;5013192;28;45517;-73
2021/11/23 07:08:36;;;;;;;;;25.50;21.50;;;;;1.63;72.00;101959.88;5013043;28;45524;-73
2021/11/23 07:11:01;;;;;;;;;21.75;18.25;;;;;1.63;72.18;101959.00;5016745;28;45399;-73
2021/11/23 07:13:27;;;;;;;;;26.50;21.50;;;;;1.68;71.82;101980.72;5016945;28;45302;-76
2021/11/23 07:15:52;;;;;;;;;26.00;22.00;;;;;1.68;72.46;101970.31;5017270;28;45402;-73
2021/11/23 07:18:18;;;;;;;;;24.25;20.75;;;;;1.66;72.07;101967.72;5018519;28;45325;-78
2021/11/23 07:20:45;;;;;;;;;23.25;20.25;;;;;1.69;72.39;101974.66;5014601;28;46089;-73
2021/11/23 07:23:11;;;;;;;;;30.75;23.00;;;;;1.48;71.58;101938.81;5015019;27;45331;-72
2021/11/23 07:25:37;;;;;;;;;19.00;15.00;;;;;1.72;72.04;101991.19;5015789;28;45314;-72
2021/11/23 07:28:02;;;;;;;;;27.25;23.00;;;;;1.72;71.41;101979.91;5016169;28;45637;-75
2021/11/23 07:30:28;;;;;;;;;25.25;18.75;;;;;1.70;71.48;101979.00;5016036;28;46360;-72
2021/11/23 07:32:53;;;;;;;;;29.00;23.50;;;;;1.78;71.30;101993.00;5015873;28;45400;-74
2021/11/23 07:35:20;;;;;;;;;22.50;20.50;;;;;1.79;71.66;101993.91;5015925;28;45344;-74
2021/11/23 07:37:47;;;;;;;;;28.75;22.50;;;;;1.80;71.72;101996.50;5015027;27;45436;-75
2021/11/23 07:40:12;;;;;;;;;24.25;21.50;;;;;1.82;71.40;101999.13;5016124;28;46366;-73
2021/11/23 07:42:39;;;;;;;;;19.75;16.25;;;;;1.88;70.96;102010.50;5016399;28;45430;-74
2021/11/23 07:45:05;;;;;;;;;30.50;21.75;;;;;1.80;70.71;101998.25;5019556;28;45364;-74
2021/11/23 07:47:30;;;;;;;;;28.75;21.75;;;;;1.91;71.31;102009.69;5024053;28;45263;-75
2021/11/23 07:49:56;;;;;;;;;28.75;24.00;;;;;1.91;71.30;102012.28;5024383;28;45429;-75
2021/11/23 07:52:22;;;;;;;;;31.00;18.50;;;;;1.93;71.00;102013.19;5024190;27;45416;-75
2021/11/23 07:54:48;;;;;;;;;27.50;22.25;;;;;1.99;71.39;102031.47;5018357;28;45304;-70
2021/11/23 07:57:14;;;;;;;;;22.00;19.00;;;;;2.00;70.34;102020.25;5020046;28;45277;-76
2021/11/23 07:59:39;;;;;;;;;18.00;14.00;;;;;2.04;70.16;102028.94;5018267;28;45455;-77
2021/11/23 08:02:06;;;;;;;;;20.50;19.25;;;;;1.99;69.93;102018.50;5014542;28;45333;-75
2021/11/23 08:04:31;;;;;;;;;24.25;18.00;;;;;2.08;70.32;102035.94;5014403;28;45701;-77
2021/11/23 08:06:57;;;;;;;;;26.50;18.00;;;;;2.14;69.57;102036.09;5016702;28;45205;-71
2021/11/23 08:09:22;;;;;;;;;22.75;16.75;;;;;2.15;69.90;102037.84;5075579;27;46073;-72
2021/11/23 08:11:48;;;;;;;;;28.50;24.50;;;;;2.10;70.10;102013.47;5015502;28;45360;-75
2021/11/23 08:14:13;;;;;;;;;21.25;18.75;;;;;2.22;69.42;102030.16;5015598;28;45304;-74
2021/11/23 08:16:39;;;;;;;;;22.75;18.25;;;;;2.25;68.88;102035.41;5017853;27;45328;-74
2021/11/23 08:19:04;;;;;;;;;19.75;16.25;;;;;2.22;68.68;102030.16;5016958;28;45412;-76
2021/11/23 08:21:30;;;;;;;;;23.25;20.25;;;;;2.36;68.89;102051.16;5021446;27;45251;-75
2021/11/23 08:23:56;;;;;;;;;16.75;13.75;;;;;2.40;68.56;102043.47;5038955;27;45328;-75
2021/11/23 08:26:23;;;;;;;;;21.00;13.75;;;;;2.43;67.67;102047.81;5065546;27;45349;-75
2021/11/23 08:28:49;;;;;;;;;16.25;13.00;;;;;2.47;67.87;102045.31;5015679;28;46178;-70
2021/11/23 08:31:14;;;;;;;;;19.50;15.25;;;;;2.52;67.39;102042.78;5016561;28;45318;-71
2021/11/23 08:33:41;;;;;;;;;17.75;14.00;;;;;2.55;67.02;102041.97;5016232;28;45430;-73
2021/11/23 08:36:07;;;;;;;;;15.50;14.00;;;;;2.58;66.74;102035.09;5020647;28;45407;-71
2021/11/23 08:38:32;;;;;;;;;14.75;13.25;;;;;2.63;66.85;102035.16;5019903;28;45400;-72
2021/11/23 08:40:58;;;;;;;;;15.50;14.25;;;;;2.67;65.36;102039.56;5016793;28;45224;-72
2021/11/23 08:43:23;;;;;;;;;12.50;9.50;;;;;2.71;66.30;102043.97;5014982;27;45364;-72
2021/11/23 08:45:49;;;;;;;;;14.00;12.00;;;;;2.69;65.05;102037.00;5014282;28;45529;-70
2021/11/23 08:48:14;;;;;;;;;18.75;13.00;;;;;2.75;65.52;102037.97;5016605;28;46183;-71
2021/11/23 08:50:40;;;;;;;;;15.00;13.50;;;;;2.81;64.38;102042.41;5016069;28;45312;-71
2021/11/23 08:53:08;;;;;;;;;7.50;4.50;;;;;2.83;65.09;102034.59;5015032;27;45483;-72
2021/11/23 08:55:38;;;;;;;;;17.50;14.25;;;;;2.86;63.46;102035.53;5013526;28;45523;-72
2021/11/23 08:58:05;;;;;;;;;13.00;11.00;;;;;2.88;64.93;102032.94;5014537;28;46188;-71
2021/11/23 09:00:32;;;;;;;;;11.75;10.50;;;;;2.94;64.27;102033.03;5014422;28;45391;-71
2021/11/23 09:03:00;;;;;;;;;18.00;14.25;;;;;3.00;64.01;102032.28;5013831;28;45489;-71
2021/11/23 09:05:31;;;;;;;;;17.50;15.25;;;;;3.00;65.08;102022.72;5016022;27;45537;-74
2021/11/23 09:08:00;;;;;;;;;33.50;23.50;;;;;3.06;63.92;102032.38;5014724;28;46325;-72
2021/11/23 09:10:28;;;;;;;;;15.25;12.50;;;;;3.13;63.77;102039.41;5017472;28;45487;-72
2021/11/23 09:12:57;;;;;;;;;14.50;13.00;;;;;3.18;63.14;102049.84;5018137;28;45192;-72
2021/11/23 09:15:23;;;;;;;;;17.50;12.25;;;;;3.24;63.22;102041.28;5014866;28;45337;-72
2021/11/23 09:17:50;;;;;;;;;12.50;11.00;;;;;3.29;62.75;102043.09;5013335;28;47777;-71
2021/11/23 09:20:18;;;;;;;;;17.00;10.00;;;;;3.34;61.24;102045.75;5014593;28;45436;-71
2021/11/23 09:22:43;;;;;;;;;13.00;10.75;;;;;3.39;62.09;102049.28;5014068;28;45537;-71
2021/11/23 09:25:10;;;;;;;;;10.50;10.25;;;;;3.45;62.23;102046.75;5015622;28;45227;-71
2021/11/23 09:27:36;;;;;;;;;7.25;5.50;;;;;3.53;59.79;102051.19;5016833;28;45946;-71
2021/11/23 09:30:03;;;;;;;;;8.25;8.00;;;;;3.56;58.60;102043.41;5015882;28;45413;-73
2021/11/23 09:32:28;;;;;;;;;16.50;14.75;;;;;3.68;60.72;102051.38;5015237;28;45425;-71
2021/11/23 09:34:56;;;;;;;;;8.75;8.00;;;;;3.74;59.27;102048.00;5015606;28;45380;-71
2021/11/23 09:37:22;;;;;;;;;10.50;9.75;;;;;3.79;60.02;102049.81;5015428;27;47323;-70
2021/11/23 09:39:47;;;;;;;;;12.75;10.00;;;;;3.90;60.18;102056.84;5014801;27;45331;-70
2021/11/23 09:42:13;;;;;;;;;4.00;3.50;;;;;3.96;58.57;102062.13;5015539;28;45238;-73
2021/11/23 09:44:38;;;;;;;;;9.25;8.00;;;;;3.93;58.54;102043.88;5015925;27;45352;-71
2021/11/23 09:47:03;;;;;;;;;6.25;4.75;;;;;4.07;57.83;102057.91;5014821;28;45321;-72
2021/11/23 09:49:30;;;;;;;;;4.00;4.00;;;;;4.10;56.17;102057.06;5015378;27;45267;-73
2021/11/23 09:51:56;;;;;;;;;10.00;3.75;;;;;4.17;56.10;102058.88;5017146;27;45292;-71
2021/11/23 09:54:22;;;;;;;;;4.00;4.00;;;;;4.23;57.24;102047.66;5015294;28;45520;-72
2021/11/23 09:56:48;;;;;;;;;8.25;5.00;;;;;4.28;56.45;102047.72;5014354;28;45906;-72
2021/11/23 09:59:14;;;;;;;;;4.50;4.00;;;;;4.34;56.81;102051.22;5014652;28;46023;-71
2021/11/23 10:02:00;;;;;;;;;6.75;5.00;;;;;4.38;56.47;102050.41;5016532;27;45467;-71
2021/11/23 10:04:28;;;;;;;;;8.75;7.75;;;;;4.51;57.73;102051.41;5012799;28;45492;-71
2021/11/23 10:07:02;;;;;;;;;7.00;5.00;;;;;4.46;55.69;102034.84;5013327;28;46361;-72
2021/11/23 10:09:41;;;;;;;;;10.00;8.00;;;;;4.66;56.89;102049.78;5013558;28;45313;-71
2021/11/23 10:12:33;;;;;;;;;3.50;3.00;;;;;4.73;54.80;102042.84;5012454;28;45479;-71
2021/11/23 10:15:16;;;;;;;;;6.00;4.25;;;;;4.79;55.62;102043.78;5015027;28;45386;-70
2021/11/23 10:17:44;;;;;;;;;4.00;3.75;;;;;4.82;55.08;102049.03;5012933;28;46514;-70
2021/11/23 10:20:46;;;;;;;;;5.25;4.00;;;;;4.87;54.03;102041.25;5014344;28;45242;-71
2021/11/23 10:23:27;;;;;;;;;6.50;3.75;;;;;4.90;53.87;102032.56;4992779;28;46063;-70
2021/11/23 10:26:02;;;;;;;;;7.25;6.75;;;;;4.93;54.95;102030.88;5012435;28;45262;-72
2021/11/23 10:28:29;;;;;;;;;6.00;6.00;;;;;5.04;55.75;102035.28;5011836;28;47276;-72
2021/11/23 10:30:56;;;;;;;;;6.75;6.00;;;;;5.06;54.31;102033.56;5012963;28;45473;-70
2021/11/23 10:33:22;;;;;;;;;3.25;2.50;;;;;5.11;54.46;102027.47;5013581;27;45341;-70
2021/11/23 10:35:52;;;;;;;;;7.00;4.00;;;;;5.10;54.18;102024.88;5014492;28;45309;-71
2021/11/23 10:38:20;;;;;;;;;6.50;5.25;;;;;5.17;54.59;102028.38;5014865;28;45465;-75
2021/11/23 10:40:47;;;;;;;;;17.00;11.50;;;;;5.24;52.91;102035.38;5014495;27;45506;-70
2021/11/23 10:43:16;;;;;;;;;4.00;4.00;;;;;5.29;53.07;102036.28;5014078;28;45246;-72
2021/11/23 10:45:59;;;;;;;;;5.00;5.00;;;;;5.34;54.29;102026.75;5015239;27;45594;-72
2021/11/23 10:48:27;;;;;;;;;4.00;4.00;;;;;5.41;53.97;102036.34;5015521;28;45329;-70
2021/11/23 10:51:20;;;;;;;;;3.75;3.75;;;;;5.46;52.10;102035.50;5014264;28;45436;-71
2021/11/23 10:53:46;;;;;;;;;8.00;5.50;;;;;5.47;53.56;102014.63;5013664;27;45405;-70
2021/11/23 10:56:13;;;;;;;;;5.25;3.50;;;;;5.44;53.25;102006.78;5012950;27;45331;-70
2021/11/23 10:58:42;;;;;;;;;13.00;8.00;;;;;5.56;51.29;102019.03;5012432;28;46874;-70
2021/11/23 11:01:11;;;;;;;;;4.75;4.25;;;;;5.59;51.19;102021.63;5013823;28;45349;-71
2021/11/23 11:03:39;;;;;;;;;5.50;4.00;;;;;5.61;51.77;102009.47;5015372;28;45254;-72
2021/11/23 11:06:06;;;;;;;;;4.00;3.00;;;;;5.66;52.63;102005.13;5014818;27;45351;-71
2021/11/23 11:08:35;;;;;;;;;5.00;5.00;;;;;5.77;51.43;102010.38;5012453;28;47510;-71
2021/11/23 11:11:01;;;;;;;;;6.25;4.00;;;;;5.85;52.10;102002.56;5014328;28;45334;-71
2021/11/23 11:13:28;;;;;;;;;3.25;2.75;;;;;5.91;50.63;102002.59;5015334;28;45296;-71
2021/11/23 11:15:59;;;;;;;;;4.50;4.00;;;;;5.93;49.47;101990.41;5014475;27;45433;-71